Time;durP1;ratioP1;P1;durP2;ratioP2;P2;SDS_P1;SDS_P2;PMS_P1;PMS_P2;Temp;Humidity;BMP_temperature;BMP_pressure;BME280_temperature;BME280_humidity;BME280_pressure;Samples;Min_cycle;Max_cycle;Signal;HPM_P1;HPM_P2
2021/03/14 00:03:52;;;;;;;28.10;14.65;;;;;;;4.08;100.00;94551.47;10488228;28;20028;-76
2021/03/14 00:08:53;;;;;;;29.97;15.53;;;;;;;4.08;100.00;94538.16;10488504;28;20082;-76
2021/03/14 00:13:53;;;;;;;30.88;15.75;;;;;;;4.06;100.00;94534.13;10487634;28;20509;-76
2021/03/14 00:18:54;;;;;;;35.80;14.77;;;;;;;3.99;100.00;94526.31;10484290;28;20082;-76
2021/03/14 00:23:54;;;;;;;16.63;10.47;;;;;;;3.85;100.00;94530.28;10486153;28;20047;-76
2021/03/14 00:28:54;;;;;;;21.93;10.60;;;;;;;3.83;100.00;94517.22;10486517;28;20282;-77
2021/03/14 00:33:54;;;;;;;19.07;10.53;;;;;;;3.69;100.00;94499.94;10488054;28;20029;-77
2021/03/14 00:38:55;;;;;;;19.30;9.97;;;;;;;3.80;100.00;94498.28;10487968;28;20032;-76
2021/03/14 00:43:55;;;;;;;19.47;9.23;;;;;;;3.89;100.00;94499.50;10487295;28;20107;-76
2021/03/14 00:48:56;;;;;;;20.70;10.60;;;;;;;3.91;100.00;94484.94;10486850;28;20278;-76
2021/03/14 00:53:58;;;;;;;23.95;12.55;;;;;;;3.92;100.00;94497.19;10487018;28;20062;-76
2021/03/14 00:58:58;;;;;;;22.85;13.23;;;;;;;3.88;100.00;94485.44;10487198;28;20093;-76
2021/03/14 01:03:59;;;;;;;25.93;14.03;;;;;;;3.77;100.00;94488.94;10487260;28;20033;-76
2021/03/14 01:08:59;;;;;;;25.53;13.83;;;;;;;3.63;100.00;94503.50;10486804;28;20036;-75
2021/03/14 01:14:00;;;;;;;23.65;15.07;;;;;;;3.38;100.00;94494.00;10486688;28;20340;-76
2021/03/14 01:19:00;;;;;;;28.90;17.10;;;;;;;3.09;100.00;94499.22;10485665;28;20020;-76
2021/03/14 01:24:00;;;;;;;32.70;18.13;;;;;;;2.89;100.00;94488.97;10488667;28;20415;-76
2021/03/14 01:29:01;;;;;;;41.60;22.45;;;;;;;2.54;100.00;94487.06;10496051;28;20271;-76
2021/03/14 01:34:01;;;;;;;37.10;21.77;;;;;;;2.52;100.00;94497.91;10494993;28;20032;-76
2021/03/14 01:39:03;;;;;;;47.37;23.97;;;;;;;2.38;100.00;94489.34;10494348;28;20811;-76
2021/03/14 01:44:03;;;;;;;40.95;24.45;;;;;;;2.46;100.00;94484.78;10494275;28;20270;-76
2021/03/14 01:49:04;;;;;;;48.67;24.63;;;;;;;2.56;100.00;94485.81;10493467;28;20444;-76
2021/03/14 01:54:05;;;;;;;45.10;25.92;;;;;;;2.61;100.00;94486.97;10494221;28;20036;-76
2021/03/14 01:59:05;;;;;;;41.55;22.80;;;;;;;2.72;100.00;94478.22;10493787;28;20035;-76
2021/03/14 02:04:06;;;;;;;42.30;22.55;;;;;;;2.70;100.00;94481.09;10493780;28;20107;-76
2021/03/14 02:09:06;;;;;;;37.60;21.25;;;;;;;2.51;100.00;94491.00;10493250;28;20047;-76
2021/03/14 02:14:07;;;;;;;47.63;25.80;;;;;;;2.58;100.00;94490.09;10452833;28;20033;-76
2021/03/14 02:19:13;;;;;;;52.40;25.08;;;;;;;2.61;100.00;94482.50;10451378;28;20078;-77
2021/03/14 02:24:18;;;;;;;43.22;22.25;;;;;;;2.49;100.00;94477.16;10451636;28;20025;-76
2021/03/14 02:29:20;;;;;;;59.38;24.98;;;;;;;2.58;100.00;94482.13;10451460;28;20033;-76
2021/03/14 02:34:32;;;;;;;43.47;24.63;;;;;;;2.59;100.00;94475.78;10449318;28;20036;-76
2021/03/14 02:39:35;;;;;;;45.85;24.60;;;;;;;2.55;100.00;94470.13;10450918;28;20099;-76
2021/03/14 02:44:41;;;;;;;44.05;24.13;;;;;;;2.56;100.00;94471.75;10450867;28;20036;-77
2021/03/14 02:49:42;;;;;;;46.25;23.92;;;;;;;2.50;100.00;94481.44;10451902;28;20053;-77
2021/03/14 02:54:45;;;;;;;42.58;23.40;;;;;;;2.54;100.00;94490.56;10452480;28;20029;-77
2021/03/14 02:59:46;;;;;;;39.17;22.40;;;;;;;2.60;100.00;94480.88;10451044;28;20021;-76
2021/03/14 03:04:48;;;;;;;43.50;24.38;;;;;;;2.70;100.00;94475.78;10449617;28;20087;-76
2021/03/14 03:09:52;;;;;;;26.52;15.40;;;;;;;2.72;100.00;94467.59;10450250;28;20444;-76
2021/03/14 03:14:55;;;;;;;24.00;14.10;;;;;;;2.42;100.00;94460.53;10449419;28;20376;-76
2021/03/14 03:19:56;;;;;;;26.25;15.73;;;;;;;2.16;100.00;94462.59;10447458;28;20685;-76
2021/03/14 03:24:57;;;;;;;25.60;13.55;;;;;;;2.14;100.00;94458.53;10447576;28;20103;-76
2021/03/14 03:29:57;;;;;;;22.45;14.27;;;;;;;2.20;100.00;94461.06;10459785;28;20035;-76
2021/03/14 03:34:58;;;;;;;34.58;18.27;;;;;;;2.25;100.00;94470.19;10483797;28;20115;-76
2021/03/14 03:40:03;;;;;;;37.10;20.27;;;;;;;2.27;100.00;94460.97;10489878;28;20020;-76
2021/03/14 03:45:06;;;;;;;46.50;25.42;;;;;;;2.36;100.00;94443.72;10489215;28;20017;-76
2021/03/14 03:50:07;;;;;;;65.15;31.77;;;;;;;2.36;100.00;94451.66;10486411;28;20041;-76
2021/03/14 03:55:09;;;;;;;69.93;37.67;;;;;;;2.17;100.00;94456.22;10487886;28;20033;-76
2021/03/14 04:00:16;;;;;;;71.18;38.55;;;;;;;2.10;100.00;94463.47;10485780;28;20877;-76
2021/03/14 04:05:18;;;;;;;63.40;32.35;;;;;;;1.95;100.00;94455.13;10487012;28;20028;-76
2021/03/14 04:10:22;;;;;;;84.95;42.47;;;;;;;1.77;100.00;94448.06;10487098;28;20113;-77
2021/03/14 04:15:25;;;;;;;78.85;43.15;;;;;;;1.87;100.00;94443.84;10488396;28;20032;-77
2021/03/14 04:20:32;;;;;;;93.00;46.47;;;;;;;1.85;100.00;94434.50;10488271;28;20036;-77
2021/03/14 04:25:33;;;;;;;83.18;42.58;;;;;;;1.85;100.00;94435.28;10493768;28;20459;-77
2021/03/14 04:30:35;;;;;;;91.50;44.10;;;;;;;1.85;100.00;94432.63;10486219;28;20028;-77
2021/03/14 04:35:39;;;;;;;91.10;46.95;;;;;;;1.85;100.00;94427.34;10484540;28;20115;-77
2021/03/14 04:40:41;;;;;;;84.18;42.92;;;;;;;1.96;100.00;94431.06;10486635;28;20060;-77
2021/03/14 04:45:41;;;;;;;71.93;37.65;;;;;;;2.08;100.00;94423.16;10487746;28;20032;-77
2021/03/14 04:50:42;;;;;;;80.25;39.13;;;;;;;2.27;100.00;94421.19;10486370;28;20059;-77
2021/03/14 04:55:44;;;;;;;52.53;27.73;;;;;;;2.42;100.00;94423.41;10488407;28;20028;-77
2021/03/14 05:00:45;;;;;;;41.47;24.23;;;;;;;2.32;100.00;94421.34;10486000;28;20071;-76
2021/03/14 05:05:48;;;;;;;28.65;16.27;;;;;;;2.13;100.00;94417.16;10485940;28;20170;-76
2021/03/14 05:10:50;;;;;;;20.73;12.77;;;;;;;2.21;100.00;94417.63;10485610;28;20024;-76
2021/03/14 05:15:51;;;;;;;18.00;10.82;;;;;;;2.29;100.00;94415.66;10486985;28;20091;-77
2021/03/14 05:20:52;;;;;;;22.80;11.65;;;;;;;2.38;100.00;94395.75;10486939;28;20077;-77
2021/03/14 05:25:53;;;;;;;20.08;12.13;;;;;;;2.62;100.00;94409.00;10485302;28;20486;-77
2021/03/14 05:30:54;;;;;;;18.50;10.88;;;;;;;2.88;100.00;94405.06;10459836;28;20067;-76
2021/03/14 05:35:54;;;;;;;15.00;10.35;;;;;;;2.98;100.00;94412.44;10444804;28;20037;-77
2021/03/14 05:40:55;;;;;;;19.90;10.35;;;;;;;3.71;100.00;94400.31;10444324;28;20028;-75
2021/03/14 05:45:56;;;;;;;17.85;10.02;;;;;;;4.30;100.00;94401.84;10443827;28;20112;-68
2021/03/14 05:50:56;;;;;;;16.55;9.15;;;;;;;4.66;100.00;94415.69;10442150;28;20064;-69
2021/03/14 05:55:57;;;;;;;17.97;10.53;;;;;;;5.10;100.00;94414.97;10443021;28;20472;-69
2021/03/14 06:00:59;;;;;;;16.70;10.60;;;;;;;5.78;100.00;94415.50;10443221;28;20694;-68
2021/03/14 06:05:59;;;;;;;22.23;11.27;;;;;;;6.30;100.00;94411.47;10444033;28;20116;-69
2021/03/14 06:11:02;;;;;;;20.35;12.02;;;;;;;7.04;100.00;94401.03;10444844;28;20494;-69
2021/03/14 06:16:03;;;;;;;19.48;11.63;;;;;;;7.34;100.00;94397.72;10450281;28;20478;-69
2021/03/14 06:21:17;;;;;;;30.90;15.30;;;;;;;7.57;100.00;94405.56;10450941;28;20021;-69
2021/03/14 06:26:17;;;;;;;30.13;16.38;;;;;;;8.33;100.00;94398.75;10491809;28;20119;-70
2021/03/14 06:31:22;;;;;;;26.60;16.40;;;;;;;8.78;100.00;94404.41;10462829;28;20024;-69
2021/03/14 06:36:23;;;;;;;28.02;15.57;;;;;;;9.45;100.00;94399.69;10450155;28;20025;-69
2021/03/14 06:41:23;;;;;;;31.60;16.08;;;;;;;10.00;100.00;94397.00;10478671;28;20029;-69
2021/03/14 06:46:31;;;;;;;30.77;16.33;;;;;;;10.99;89.86;94386.34;10489492;28;20034;-69
2021/03/14 06:51:34;;;;;;;26.73;14.55;;;;;;;11.96;76.45;94401.41;10490311;28;20048;-69
2021/03/14 06:56:34;;;;;;;26.80;16.13;;;;;;;12.50;75.95;94390.38;10459300;28;20119;-69
2021/03/14 07:01:34;;;;;;;38.50;21.13;;;;;;;13.48;65.33;94394.94;10449037;28;20025;-69
2021/03/14 07:06:35;;;;;;;46.17;23.83;;;;;;;13.88;63.17;94397.09;10467474;28;20078;-69
2021/03/14 07:11:44;;;;;;;54.83;29.58;;;;;;;14.01;60.57;94396.28;10489792;28;20036;-69
2021/03/14 07:16:50;;;;;;;54.42;27.80;;;;;;;13.86;63.26;94396.63;10489256;28;20039;-69
2021/03/14 07:21:59;;;;;;;47.28;23.45;;;;;;;13.50;62.29;94391.94;10469711;28;20017;-69
2021/03/14 07:27:02;;;;;;;37.08;21.77;;;;;;;14.15;59.10;94371.16;10447928;28;20033;-69
2021/03/14 07:32:04;;;;;;;37.20;21.75;;;;;;;15.06;56.04;94365.75;10448126;28;20507;-69
2021/03/14 07:37:05;;;;;;;34.97;18.70;;;;;;;15.53;51.18;94364.22;10446777;28;20025;-69
2021/03/14 07:42:06;;;;;;;40.17;19.88;;;;;;;16.35;49.24;94354.81;10446760;28;20426;-69
2021/03/14 07:47:06;;;;;;;26.13;16.00;;;;;;;17.74;44.88;94342.03;10447677;28;20388;-69
2021/03/14 07:52:09;;;;;;;34.90;18.53;;;;;;;18.33;44.11;94337.69;10446421;28;20044;-69
2021/03/14 07:57:11;;;;;;;51.58;22.98;;;;;;;17.88;44.60;94326.28;10446598;28;20458;-70
2021/03/14 08:02:18;;;;;;;30.90;17.10;;;;;;;18.65;42.79;94319.00;10446494;28;20048;-69
2021/03/14 08:07:42;;;;;;;31.38;16.30;;;;;;;18.74;43.84;94312.34;10477829;28;20419;-69
2021/03/14 08:12:42;;;;;;;32.08;17.67;;;;;;;19.02;42.88;94300.06;10462874;28;20033;-69
2021/03/14 08:17:43;;;;;;;37.53;20.13;;;;;;;20.05;41.11;94301.00;10444035;28;20023;-69
2021/03/14 08:22:45;;;;;;;48.00;20.83;;;;;;;20.89;38.60;94289.38;10445390;28;20263;-70
2021/03/14 08:27:46;;;;;;;28.58;17.08;;;;;;;19.06;42.36;94299.06;10445414;28;20405;-70
2021/03/14 08:32:47;;;;;;;42.17;19.23;;;;;;;20.11;40.17;94294.97;10443996;28;20029;-70
2021/03/14 08:37:47;;;;;;;27.67;14.87;;;;;;;21.70;37.63;94282.00;10476413;28;20531;-70
2021/03/14 08:42:48;;;;;;;39.93;17.07;;;;;;;21.72;36.87;94285.97;10484219;28;20490;-70
2021/03/14 08:47:50;;;;;;;30.73;17.17;;;;;;;20.83;39.59;94274.38;10483602;28;20028;-69
2021/03/14 08:52:50;;;;;;;29.42;16.90;;;;;;;19.33;40.32;94282.44;10481169;28;20099;-70
2021/03/14 08:57:51;;;;;;;42.63;23.55;;;;;;;17.71;44.59;94293.78;10483044;28;20059;-70
2021/03/14 09:02:51;;;;;;;51.40;28.57;;;;;;;15.91;47.21;94289.75;10484614;28;20031;-69
2021/03/14 09:07:59;;;;;;;52.60;30.10;;;;;;;15.68;55.32;94279.03;10485457;28;20038;-69
2021/03/14 09:13:01;;;;;;;49.45;27.05;;;;;;;15.92;51.69;94272.38;10485162;28;20029;-69
2021/03/14 09:18:02;;;;;;;49.20;27.35;;;;;;;15.48;53.35;94282.31;10484879;28;20032;-69
2021/03/14 09:23:06;;;;;;;46.67;26.73;;;;;;;15.85;54.00;94262.00;10484313;28;20077;-69
2021/03/14 09:28:06;;;;;;;41.08;20.67;;;;;;;16.13;50.60;94269.00;10483235;28;20043;-69
2021/03/14 09:33:07;;;;;;;43.40;21.80;;;;;;;16.30;51.55;94260.88;10483608;28;20050;-69
2021/03/14 09:38:14;;;;;;;39.95;21.60;;;;;;;16.50;48.93;94264.03;10484537;28;20402;-69
2021/03/14 09:43:26;;;;;;;42.88;18.67;;;;;;;17.53;46.58;94233.31;10484951;28;20031;-69
2021/03/14 09:48:29;;;;;;;32.35;15.65;;;;;;;18.25;43.12;94244.13;10483061;28;20416;-70
2021/03/14 09:53:31;;;;;;;32.85;17.70;;;;;;;18.64;43.04;94241.19;10451284;28;20484;-70
2021/03/14 09:58:33;;;;;;;28.83;15.50;;;;;;;20.41;40.84;94228.38;10451091;28;20036;-70
2021/03/14 10:03:34;;;;;;;25.90;14.48;;;;;;;22.80;35.71;94213.47;10450305;28;20033;-70
2021/03/14 10:08:39;;;;;;;23.13;13.15;;;;;;;24.29;32.78;94204.38;10486557;28;20032;-69
2021/03/14 10:13:46;;;;;;;23.20;12.15;;;;;;;24.12;32.40;94199.47;10490039;28;20563;-71
2021/03/14 10:18:48;;;;;;;25.92;14.27;;;;;;;23.44;33.10;94204.78;10488003;28;20031;-71
2021/03/14 10:23:49;;;;;;;26.52;15.13;;;;;;;20.95;36.58;94200.53;10488050;28;20028;-71
2021/03/14 10:28:50;;;;;;;22.63;12.55;;;;;;;19.86;39.30;94187.88;10487148;28;20535;-70
2021/03/14 10:33:50;;;;;;;27.20;14.27;;;;;;;21.74;36.22;94189.88;10488717;28;20031;-70
2021/03/14 10:38:52;;;;;;;18.47;12.47;;;;;;;22.48;34.62;94167.94;10489883;28;20025;-71
2021/03/14 10:43:55;;;;;;;22.73;12.00;;;;;;;24.59;31.45;94162.34;10477221;28;20093;-72
2021/03/14 10:49:07;;;;;;;19.85;11.50;;;;;;;24.76;30.96;94151.94;10488906;28;20384;-72
2021/03/14 10:54:11;;;;;;;16.73;10.50;;;;;;;22.40;34.45;94138.84;10484142;28;20396;-71
2021/03/14 10:59:32;;;;;;;22.50;12.13;;;;;;;23.65;32.32;94130.22;10482398;28;20051;-72
2021/03/14 11:04:33;;;;;;;19.55;9.32;;;;;;;24.59;31.36;94112.88;10484765;28;20043;-72
2021/03/14 11:09:33;;;;;;;16.75;7.75;;;;;;;26.98;26.96;94099.13;10482802;28;20024;-72
2021/03/14 11:14:39;;;;;;;9.43;6.07;;;;;;;27.35;27.15;94088.84;10485960;28;20430;-72
2021/03/14 11:19:43;;;;;;;13.57;6.30;;;;;;;25.51;27.78;94089.25;10475755;28;20110;-72
2021/03/14 11:24:47;;;;;;;12.55;5.78;;;;;;;26.50;26.82;94064.44;10485710;28;20020;-72
2021/03/14 11:29:47;;;;;;;9.05;5.50;;;;;;;24.57;29.50;94060.25;10485351;28;20480;-71
2021/03/14 11:34:48;;;;;;;15.57;6.03;;;;;;;22.23;30.10;94057.13;10484146;28;20082;-71
2021/03/14 11:39:48;;;;;;;11.40;5.90;;;;;;;21.15;32.57;94048.41;10487399;28;20706;-71
2021/03/14 11:44:49;;;;;;;9.50;4.87;;;;;;;19.50;33.45;94041.56;10486692;28;20047;-72
2021/03/14 11:49:49;;;;;;;9.73;4.23;;;;;;;19.13;34.64;94028.84;10487509;28;20056;-72
2021/03/14 11:54:51;;;;;;;8.18;4.57;;;;;;;18.82;34.81;94022.06;10487889;28;20037;-72
2021/03/14 11:59:51;;;;;;;9.35;5.45;;;;;;;17.90;36.33;94013.31;10487366;28;20032;-72
2021/03/14 12:04:51;;;;;;;7.60;5.28;;;;;;;17.12;37.23;94010.25;10487089;28;20028;-71
2021/03/14 12:09:53;;;;;;;9.63;5.67;;;;;;;16.79;38.82;93989.25;10486445;28;20028;-71
2021/03/14 12:14:53;;;;;;;9.25;3.78;;;;;;;17.11;38.96;93975.28;10487259;28;20439;-72
2021/03/14 12:19:54;;;;;;;4.22;2.42;;;;;;;17.30;37.20;93963.91;10487225;28;20115;-72
2021/03/14 12:24:55;;;;;;;7.18;2.63;;;;;;;16.61;36.62;93955.22;10486742;28;20476;-71
2021/03/14 12:29:55;;;;;;;7.23;4.00;;;;;;;16.71;37.95;93949.41;10486609;28;20111;-71
2021/03/14 12:34:56;;;;;;;3.65;2.00;;;;;;;16.60;35.78;93934.66;10486270;28;20033;-71
2021/03/14 12:39:56;;;;;;;9.38;5.18;;;;;;;16.34;39.11;93946.44;10485978;28;20360;-71
2021/03/14 12:44:56;;;;;;;8.53;4.50;;;;;;;16.35;39.12;93931.78;10485556;28;20031;-71
2021/03/14 12:50:00;;;;;;;15.50;3.83;;;;;;;16.57;37.77;93936.88;10485104;28;20295;-70
2021/03/14 12:55:02;;;;;;;2.95;1.92;;;;;;;16.84;35.68;93917.69;10478586;28;20566;-69
2021/03/14 13:00:08;;;;;;;3.65;2.38;;;;;;;17.24;35.20;93901.66;10483895;28;20125;-69
2021/03/14 13:05:09;;;;;;;3.35;1.83;;;;;;;17.00;35.23;93901.63;10487138;28;20512;-70
2021/03/14 13:10:10;;;;;;;5.40;2.30;;;;;;;16.64;36.51;93897.59;10486576;28;20020;-69
2021/03/14 13:15:11;;;;;;;5.05;2.10;;;;;;;16.44;36.15;93894.56;10486304;28;20407;-69
2021/03/14 13:20:14;;;;;;;3.17;1.80;;;;;;;16.78;35.76;93887.25;10489084;28;20035;-70
2021/03/14 13:25:14;;;;;;;3.63;1.50;;;;;;;17.05;35.30;93872.34;10495655;28;20025;-69
2021/03/14 13:30:15;;;;;;;7.72;2.40;;;;;;;16.82;35.36;93874.59;10492577;28;20035;-70
2021/03/14 13:35:16;;;;;;;3.83;2.20;;;;;;;16.60;35.56;93864.13;10494748;28;20078;-69
2021/03/14 13:40:18;;;;;;;2.05;1.60;;;;;;;16.69;35.99;93862.13;10494066;28;20150;-69
2021/03/14 13:45:19;;;;;;;2.92;1.90;;;;;;;16.55;35.45;93860.47;10493324;28;20021;-69
2021/03/14 13:50:19;;;;;;;2.67;2.03;;;;;;;16.55;36.27;93856.97;10493129;28;20044;-71
2021/03/14 13:55:20;;;;;;;4.28;1.77;;;;;;;16.42;37.80;93855.31;10494081;28;20441;-71
2021/03/14 14:00:22;;;;;;;3.70;2.25;;;;;;;16.49;36.67;93850.16;10493294;28;20434;-70
2021/03/14 14:05:22;;;;;;;6.35;2.30;;;;;;;16.66;35.84;93838.34;10492719;28;20024;-70
2021/03/14 14:10:25;;;;;;;4.47;2.20;;;;;;;16.85;36.36;93835.94;10493462;28;20032;-70
2021/03/14 14:15:25;;;;;;;3.47;1.92;;;;;;;16.82;36.54;93833.09;10492601;28;20136;-70
2021/03/14 14:20:25;;;;;;;5.22;2.00;;;;;;;16.54;37.56;93825.56;10477723;28;20043;-70
2021/03/14 14:25:27;;;;;;;4.28;2.53;;;;;;;16.18;38.00;93827.75;10451244;28;20090;-71
2021/03/14 14:30:29;;;;;;;4.30;2.20;;;;;;;16.01;37.62;93825.19;10470254;28;20024;-71
2021/03/14 14:35:31;;;;;;;6.85;4.70;;;;;;;15.97;38.21;93818.81;10490372;28;20034;-71
2021/03/14 14:40:32;;;;;;;5.40;2.50;;;;;;;16.06;38.87;93816.81;10468614;28;20037;-69
2021/03/14 14:45:33;;;;;;;3.83;2.55;;;;;;;16.10;37.45;93811.56;10453611;28;20415;-70
2021/03/14 14:50:33;;;;;;;5.30;2.10;;;;;;;15.94;37.17;93806.72;10491241;28;20128;-69
2021/03/14 14:55:33;;;;;;;2.57;2.03;;;;;;;15.97;36.40;93803.34;10491214;28;20060;-69
2021/03/14 15:00:34;;;;;;;5.63;2.40;;;;;;;15.97;36.88;93794.44;10490736;28;20032;-69
2021/03/14 15:05:34;;;;;;;5.07;2.13;;;;;;;15.76;37.67;93787.06;10489508;28;20434;-68
2021/03/14 15:10:35;;;;;;;3.70;2.13;;;;;;;15.60;37.56;93783.31;10490382;28;20031;-69
2021/03/14 15:15:35;;;;;;;4.53;2.30;;;;;;;15.38;38.26;93785.22;10489837;28;20132;-68
2021/03/14 15:20:36;;;;;;;3.50;2.20;;;;;;;15.25;38.74;93786.22;10487719;28;20637;-69
2021/03/14 15:25:37;;;;;;;4.30;2.30;;;;;;;15.10;38.97;93774.03;10489924;28;20502;-69
2021/03/14 15:30:38;;;;;;;4.20;2.25;;;;;;;15.15;38.28;93773.84;10488702;28;20410;-69
2021/03/14 15:35:38;;;;;;;3.27;2.17;;;;;;;15.16;37.64;93765.41;10489280;28;20039;-69
2021/03/14 15:40:39;;;;;;;2.33;1.80;;;;;;;15.16;36.06;93756.50;10489815;28;20029;-69
2021/03/14 15:45:39;;;;;;;3.78;2.17;;;;;;;15.10;36.99;93757.78;10488684;28;20082;-69
2021/03/14 15:50:39;;;;;;;4.40;2.60;;;;;;;15.03;37.51;93747.50;10488684;28;20513;-69
2021/03/14 15:55:40;;;;;;;6.97;3.23;;;;;;;14.79;38.61;93751.56;10486974;28;20035;-70
2021/03/14 16:00:40;;;;;;;8.50;3.70;;;;;;;14.68;38.97;93748.41;10451362;28;20283;-70
2021/03/14 16:05:41;;;;;;;7.22;4.25;;;;;;;14.67;39.65;93754.16;10484177;28;20282;-69
2021/03/14 16:10:41;;;;;;;5.73;3.10;;;;;;;14.46;40.47;93748.63;10486734;28;20043;-70
2021/03/14 16:15:41;;;;;;;15.00;3.70;;;;;;;14.28;42.13;93745.94;10487728;28;20060;-70
2021/03/14 16:20:42;;;;;;;4.00;2.63;;;;;;;13.98;40.24;93747.72;10487325;28;20036;-70
2021/03/14 16:25:43;;;;;;;8.00;2.77;;;;;;;13.88;41.14;93745.34;10487130;28;20016;-70
2021/03/14 16:30:43;;;;;;;7.80;2.90;;;;;;;13.73;41.91;93746.59;10487840;28;20310;-70
2021/03/14 16:35:44;;;;;;;12.07;3.20;;;;;;;13.62;42.68;93740.75;10486883;28;20127;-70
2021/03/14 16:40:44;;;;;;;11.97;3.00;;;;;;;13.59;43.18;93746.75;10486947;28;20081;-70
2021/03/14 16:45:44;;;;;;;12.07;4.75;;;;;;;13.45;43.21;93750.41;10464863;28;20271;-70
2021/03/14 16:50:45;;;;;;;12.03;4.30;;;;;;;13.33;43.46;93744.78;10486968;28;20052;-70
2021/03/14 16:55:46;;;;;;;15.67;4.50;;;;;;;13.26;43.67;93747.94;10485598;28;20032;-70
2021/03/14 17:00:46;;;;;;;12.25;4.50;;;;;;;12.91;45.99;93747.84;10486827;28;20060;-70
2021/03/14 17:05:47;;;;;;;12.85;5.10;;;;;;;12.86;46.98;93753.38;10486080;28;20111;-70
2021/03/14 17:10:51;;;;;;;14.57;5.10;;;;;;;12.70;47.17;93755.69;10467236;28;20029;-70
2021/03/14 17:15:52;;;;;;;22.58;8.55;;;;;;;12.62;47.67;93757.22;10473797;28;20028;-70
2021/03/14 17:20:52;;;;;;;13.88;6.50;;;;;;;12.58;47.88;93758.16;10469730;28;20391;-70
2021/03/14 17:25:56;;;;;;;20.97;8.73;;;;;;;12.53;48.14;93759.09;10484514;28;20054;-70
2021/03/14 17:30:57;;;;;;;17.35;6.60;;;;;;;12.48;48.18;93751.94;10486393;28;20044;-70
2021/03/14 17:35:57;;;;;;;25.30;6.93;;;;;;;12.39;49.47;93759.19;10481436;28;20033;-70
2021/03/14 17:40:58;;;;;;;24.88;7.63;;;;;;;12.29;50.85;93762.94;10458257;28;20040;-70
2021/03/14 17:45:58;;;;;;;13.52;6.40;;;;;;;12.11;49.64;93764.72;10478122;28;20061;-68
2021/03/14 17:50:59;;;;;;;15.27;6.40;;;;;;;12.08;49.12;93757.25;10483164;28;20074;-69
2021/03/14 17:55:59;;;;;;;17.42;7.07;;;;;;;11.94;50.33;93754.63;10483576;28;20043;-69
2021/03/14 18:00:59;;;;;;;15.83;6.97;;;;;;;11.94;51.27;93756.50;10484002;28;20026;-69
2021/03/14 18:06:00;;;;;;;12.40;5.77;;;;;;;11.90;51.55;93763.56;10487520;28;20998;-69
2021/03/14 18:11:00;;;;;;;13.15;6.97;;;;;;;11.91;52.36;93752.47;10492357;28;20040;-70
2021/03/14 18:16:01;;;;;;;11.65;6.53;;;;;;;11.91;52.46;93752.47;10491935;28;20486;-69
2021/03/14 18:21:02;;;;;;;14.77;6.40;;;;;;;11.77;53.27;93754.44;10483689;28;20032;-69
2021/03/14 18:26:02;;;;;;;13.77;7.25;;;;;;;11.79;53.54;93755.75;10454839;28;20348;-70
2021/03/14 18:31:03;;;;;;;9.50;5.32;;;;;;;11.69;55.10;93757.84;10480005;28;20032;-68
2021/03/14 18:36:05;;;;;;;8.52;5.57;;;;;;;11.53;57.07;93760.09;10450959;28;20037;-70
2021/03/14 18:41:05;;;;;;;9.77;5.90;;;;;;;11.51;57.94;93763.09;10449966;28;20028;-70
2021/03/14 18:46:06;;;;;;;14.00;6.40;;;;;;;11.46;59.96;93757.81;10459461;28;20047;-69
2021/03/14 18:51:06;;;;;;;15.57;6.23;;;;;;;11.40;61.70;93764.41;10491709;28;20036;-69
2021/03/14 18:56:07;;;;;;;13.57;7.83;;;;;;;11.33;63.45;93754.06;10490953;28;20097;-69
2021/03/14 19:01:07;;;;;;;10.10;6.35;;;;;;;11.11;66.44;93755.59;10490432;28;20024;-69
2021/03/14 19:06:09;;;;;;;12.30;7.03;;;;;;;10.95;69.42;93767.72;10491617;28;20821;-70
2021/03/14 19:11:10;;;;;;;16.70;8.43;;;;;;;10.91;71.31;93748.72;10490541;28;20783;-69
2021/03/14 19:16:10;;;;;;;17.38;8.75;;;;;;;10.76;74.23;93727.53;10490781;28;20297;-69
2021/03/14 19:21:10;;;;;;;13.10;7.30;;;;;;;10.60;77.28;93735.06;10490379;28;20036;-69
2021/03/14 19:26:11;;;;;;;19.23;9.97;;;;;;;10.56;78.06;93736.75;10490310;28;20321;-71
2021/03/14 19:31:11;;;;;;;11.27;6.28;;;;;;;10.40;79.05;93736.25;10489813;28;20764;-69
2021/03/14 19:36:11;;;;;;;15.33;8.50;;;;;;;10.27;78.33;93724.38;10489906;28;20590;-69
2021/03/14 19:41:13;;;;;;;19.40;8.53;;;;;;;10.32;80.34;93729.63;10489859;28;20320;-68
2021/03/14 19:46:13;;;;;;;17.80;9.02;;;;;;;10.22;83.01;93732.50;10470344;28;20054;-69
2021/03/14 19:51:13;;;;;;;18.00;9.27;;;;;;;10.13;84.52;93731.59;10467590;28;20045;-68
2021/03/14 19:56:14;;;;;;;16.27;8.88;;;;;;;10.13;86.78;93729.72;10447242;28;20321;-68
2021/03/14 20:01:14;;;;;;;21.20;11.83;;;;;;;10.11;87.36;93733.78;10456823;28;20021;-68
2021/03/14 20:06:15;;;;;;;27.35;12.65;;;;;;;10.10;87.27;93722.22;10488842;28;20095;-69
2021/03/14 20:11:15;;;;;;;23.20;13.07;;;;;;;10.07;88.26;93722.81;10486539;28;20025;-67
2021/03/14 20:16:16;;;;;;;21.80;12.77;;;;;;;10.08;88.02;93709.09;10487838;28;20036;-69
2021/03/14 20:21:17;;;;;;;31.23;16.73;;;;;;;10.01;89.52;93719.44;10469071;28;20575;-69
2021/03/14 20:26:17;;;;;;;23.50;12.77;;;;;;;10.13;88.98;93715.47;10445870;28;20043;-69
2021/03/14 20:31:18;;;;;;;22.43;12.70;;;;;;;9.95;89.69;93693.78;10444955;28;20040;-69
2021/03/14 20:36:19;;;;;;;22.13;12.38;;;;;;;9.91;91.16;93715.03;10444155;28;20495;-69
2021/03/14 20:41:19;;;;;;;20.07;12.77;;;;;;;9.78;96.12;93715.78;10443961;28;20043;-69
2021/03/14 20:46:19;;;;;;;33.33;15.47;;;;;;;9.80;95.67;93697.50;10454066;28;20028;-69
2021/03/14 20:51:20;;;;;;;28.60;16.43;;;;;;;9.78;96.56;93710.41;10485803;28;20131;-69
2021/03/14 20:56:21;;;;;;;30.38;16.23;;;;;;;9.81;95.87;93709.03;10486547;28;20343;-69
2021/03/14 21:01:21;;;;;;;28.17;15.70;;;;;;;9.77;97.09;93702.66;10451261;28;20826;-69
2021/03/14 21:06:22;;;;;;;29.17;14.02;;;;;;;9.67;96.44;93693.69;10443895;28;20032;-69
2021/03/14 21:11:22;;;;;;;24.98;13.57;;;;;;;9.64;97.03;93690.78;10476483;28;20029;-68
2021/03/14 21:16:24;;;;;;;27.27;16.02;;;;;;;9.63;97.63;93691.88;10485653;28;20513;-69
2021/03/14 21:21:24;;;;;;;33.95;16.50;;;;;;;9.65;97.70;93690.50;10484081;28;20149;-69
2021/03/14 21:26:25;;;;;;;35.97;19.03;;;;;;;9.54;100.00;93695.25;10486448;28;20039;-69
2021/03/14 21:31:25;;;;;;;37.57;18.37;;;;;;;9.46;100.00;93703.94;10486234;28;20029;-68
2021/03/14 21:36:26;;;;;;;30.03;17.10;;;;;;;9.44;100.00;93698.06;10485552;28;20814;-69
2021/03/14 21:41:26;;;;;;;30.43;16.27;;;;;;;9.37;100.00;93689.59;10489628;28;20108;-69
2021/03/14 21:46:26;;;;;;;30.48;16.98;;;;;;;9.34;100.00;93674.09;10493857;28;20697;-69
2021/03/14 21:51:27;;;;;;;29.87;17.07;;;;;;;9.31;100.00;93669.31;10493669;28;20045;-69
2021/03/14 21:56:27;;;;;;;33.05;17.27;;;;;;;9.37;100.00;93670.81;10493421;28;20760;-69
2021/03/14 22:01:28;;;;;;;32.57;19.40;;;;;;;9.18;100.00;93654.75;10493728;28;20136;-69
2021/03/14 22:06:29;;;;;;;36.97;20.63;;;;;;;9.27;100.00;93646.88;10493166;28;20283;-69
2021/03/14 22:11:29;;;;;;;33.40;17.08;;;;;;;9.05;100.00;93657.06;10493659;28;20665;-69
2021/03/14 22:16:29;;;;;;;40.03;20.93;;;;;;;8.99;100.00;93641.38;10492227;28;20024;-69
2021/03/14 22:21:30;;;;;;;32.97;19.70;;;;;;;8.94;100.00;93644.13;10492936;28;20127;-69
2021/03/14 22:26:30;;;;;;;42.43;20.10;;;;;;;9.00;100.00;93616.13;10492508;28;20044;-69
2021/03/14 22:31:31;;;;;;;40.70;19.95;;;;;;;8.84;100.00;93620.94;10456885;28;20033;-69
2021/03/14 22:36:31;;;;;;;44.00;21.57;;;;;;;8.80;100.00;93614.56;10451264;28;20095;-69
2021/03/14 22:41:33;;;;;;;43.08;20.92;;;;;;;8.65;100.00;93615.56;10450488;28;20354;-69
2021/03/14 22:46:33;;;;;;;39.38;22.10;;;;;;;8.50;100.00;93620.03;10463317;28;20082;-69
2021/03/14 22:51:34;;;;;;;41.93;21.73;;;;;;;8.57;100.00;93608.97;10489985;28;20561;-69
2021/03/14 22:56:34;;;;;;;43.03;22.10;;;;;;;8.59;100.00;93595.28;10450029;28;20400;-74
2021/03/14 23:01:35;;;;;;;40.75;22.33;;;;;;;8.50;100.00;93603.97;10447710;28;20555;-75